sensor_id;sensor_type;location;lat;lon;timestamp;P1;durP1;ratioP1;P2;durP2;ratioP2
39740;SDS011;25426;53.478;10.190;2022-07-23T00:02:00;3.78;;;1.90;;
39740;SDS011;25426;53.478;10.190;2022-07-23T00:04:32;6.15;;;2.28;;
39740;SDS011;25426;53.478;10.190;2022-07-23T00:07:03;6.75;;;2.60;;
39740;SDS011;25426;53.478;10.190;2022-07-23T00:09:34;5.82;;;2.40;;
39740;SDS011;25426;53.478;10.190;2022-07-23T00:12:05;5.35;;;1.90;;
39740;SDS011;25426;53.478;10.190;2022-07-23T00:14:36;3.78;;;2.00;;
39740;SDS011;25426;53.478;10.190;2022-07-23T00:17:07;6.95;;;2.40;;
39740;SDS011;25426;53.478;10.190;2022-07-23T00:19:37;4.63;;;2.20;;
39740;SDS011;25426;53.478;10.190;2022-07-23T00:22:08;4.20;;;2.10;;
39740;SDS011;25426;53.478;10.190;2022-07-23T00:24:39;3.55;;;1.80;;
39740;SDS011;25426;53.478;10.190;2022-07-23T00:27:10;6.45;;;2.22;;
39740;SDS011;25426;53.478;10.190;2022-07-23T00:29:41;7.93;;;2.15;;
39740;SDS011;25426;53.478;10.190;2022-07-23T00:32:12;4.18;;;1.80;;
39740;SDS011;25426;53.478;10.190;2022-07-23T00:34:42;4.32;;;2.33;;
39740;SDS011;25426;53.478;10.190;2022-07-23T00:37:14;3.00;;;1.98;;
39740;SDS011;25426;53.478;10.190;2022-07-23T00:39:44;3.78;;;1.83;;
39740;SDS011;25426;53.478;10.190;2022-07-23T00:42:15;3.80;;;2.03;;
39740;SDS011;25426;53.478;10.190;2022-07-23T00:44:46;8.38;;;1.98;;
39740;SDS011;25426;53.478;10.190;2022-07-23T00:47:17;4.38;;;1.65;;
39740;SDS011;25426;53.478;10.190;2022-07-23T00:49:48;2.38;;;1.75;;
39740;SDS011;25426;53.478;10.190;2022-07-23T00:52:18;5.70;;;1.83;;
39740;SDS011;25426;53.478;10.190;2022-07-23T00:54:49;5.43;;;2.13;;
39740;SDS011;25426;53.478;10.190;2022-07-23T00:57:20;4.22;;;1.95;;
39740;SDS011;25426;53.478;10.190;2022-07-23T00:59:51;5.30;;;2.10;;
39740;SDS011;25426;53.478;10.190;2022-07-23T01:02:22;3.75;;;1.80;;
39740;SDS011;25426;53.478;10.190;2022-07-23T01:04:53;5.60;;;2.35;;
39740;SDS011;25426;53.478;10.190;2022-07-23T01:07:24;4.13;;;1.63;;
39740;SDS011;25426;53.478;10.190;2022-07-23T01:09:55;3.97;;;1.70;;
39740;SDS011;25426;53.478;10.190;2022-07-23T01:12:27;4.82;;;2.10;;
39740;SDS011;25426;53.478;10.190;2022-07-23T01:14:58;3.70;;;1.83;;
39740;SDS011;25426;53.478;10.190;2022-07-23T01:17:32;3.33;;;1.85;;
39740;SDS011;25426;53.478;10.190;2022-07-23T01:20:03;5.07;;;2.30;;
39740;SDS011;25426;53.478;10.190;2022-07-23T01:22:35;5.45;;;1.90;;
39740;SDS011;25426;53.478;10.190;2022-07-23T01:25:06;3.55;;;2.03;;
39740;SDS011;25426;53.478;10.190;2022-07-23T01:27:38;9.70;;;2.30;;
39740;SDS011;25426;53.478;10.190;2022-07-23T01:30:11;4.80;;;2.00;;
39740;SDS011;25426;53.478;10.190;2022-07-23T01:32:42;6.00;;;2.45;;
39740;SDS011;25426;53.478;10.190;2022-07-23T01:35:13;5.32;;;1.85;;
39740;SDS011;25426;53.478;10.190;2022-07-23T01:37:45;6.47;;;2.30;;
39740;SDS011;25426;53.478;10.190;2022-07-23T01:40:16;5.85;;;2.17;;
39740;SDS011;25426;53.478;10.190;2022-07-23T01:42:47;4.50;;;1.80;;
39740;SDS011;25426;53.478;10.190;2022-07-23T01:45:18;5.00;;;2.45;;
39740;SDS011;25426;53.478;10.190;2022-07-23T01:47:53;6.57;;;2.05;;
39740;SDS011;25426;53.478;10.190;2022-07-23T01:50:25;2.72;;;2.40;;
39740;SDS011;25426;53.478;10.190;2022-07-23T01:53:05;3.17;;;1.90;;
39740;SDS011;25426;53.478;10.190;2022-07-23T01:55:35;7.40;;;1.73;;
39740;SDS011;25426;53.478;10.190;2022-07-23T01:58:07;3.72;;;1.70;;
39740;SDS011;25426;53.478;10.190;2022-07-23T02:00:38;3.33;;;1.95;;
39740;SDS011;25426;53.478;10.190;2022-07-23T02:03:10;8.65;;;2.97;;
39740;SDS011;25426;53.478;10.190;2022-07-23T02:05:40;5.05;;;2.38;;
39740;SDS011;25426;53.478;10.190;2022-07-23T02:08:11;6.85;;;1.88;;
39740;SDS011;25426;53.478;10.190;2022-07-23T02:10:42;4.22;;;1.80;;
39740;SDS011;25426;53.478;10.190;2022-07-23T02:13:13;5.55;;;2.28;;
39740;SDS011;25426;53.478;10.190;2022-07-23T02:15:47;8.32;;;2.33;;
39740;SDS011;25426;53.478;10.190;2022-07-23T02:18:18;6.75;;;2.00;;
39740;SDS011;25426;53.478;10.190;2022-07-23T02:20:49;5.22;;;2.00;;
39740;SDS011;25426;53.478;10.190;2022-07-23T02:23:20;6.25;;;1.70;;
39740;SDS011;25426;53.478;10.190;2022-07-23T02:25:51;5.15;;;1.80;;
39740;SDS011;25426;53.478;10.190;2022-07-23T02:28:22;3.55;;;1.85;;
39740;SDS011;25426;53.478;10.190;2022-07-23T02:30:53;5.07;;;1.80;;
39740;SDS011;25426;53.478;10.190;2022-07-23T02:33:24;6.85;;;2.40;;
39740;SDS011;25426;53.478;10.190;2022-07-23T02:35:55;4.18;;;2.08;;
39740;SDS011;25426;53.478;10.190;2022-07-23T02:38:26;10.00;;;2.42;;
39740;SDS011;25426;53.478;10.190;2022-07-23T02:40:58;5.32;;;1.92;;
39740;SDS011;25426;53.478;10.190;2022-07-23T02:43:29;3.03;;;2.10;;
39740;SDS011;25426;53.478;10.190;2022-07-23T02:46:00;3.60;;;2.33;;
39740;SDS011;25426;53.478;10.190;2022-07-23T02:48:31;5.40;;;1.67;;
39740;SDS011;25426;53.478;10.190;2022-07-23T02:51:03;3.55;;;2.00;;
39740;SDS011;25426;53.478;10.190;2022-07-23T02:53:41;4.45;;;1.88;;
39740;SDS011;25426;53.478;10.190;2022-07-23T02:56:12;7.03;;;2.40;;
39740;SDS011;25426;53.478;10.190;2022-07-23T02:58:43;3.92;;;2.22;;
39740;SDS011;25426;53.478;10.190;2022-07-23T03:01:13;5.85;;;2.05;;
39740;SDS011;25426;53.478;10.190;2022-07-23T03:03:44;4.28;;;1.77;;
39740;SDS011;25426;53.478;10.190;2022-07-23T03:06:15;5.82;;;2.40;;
39740;SDS011;25426;53.478;10.190;2022-07-23T03:08:46;3.15;;;2.15;;
39740;SDS011;25426;53.478;10.190;2022-07-23T03:11:17;2.60;;;1.88;;
39740;SDS011;25426;53.478;10.190;2022-07-23T03:13:48;5.28;;;2.40;;
39740;SDS011;25426;53.478;10.190;2022-07-23T03:16:19;4.78;;;2.47;;
39740;SDS011;25426;53.478;10.190;2022-07-23T03:18:50;5.07;;;2.40;;
39740;SDS011;25426;53.478;10.190;2022-07-23T03:21:20;8.27;;;1.90;;
39740;SDS011;25426;53.478;10.190;2022-07-23T03:23:51;3.03;;;1.77;;
39740;SDS011;25426;53.478;10.190;2022-07-23T03:26:22;5.72;;;2.10;;
39740;SDS011;25426;53.478;10.190;2022-07-23T03:28:56;4.43;;;1.95;;
39740;SDS011;25426;53.478;10.190;2022-07-23T03:31:26;5.63;;;2.33;;
39740;SDS011;25426;53.478;10.190;2022-07-23T03:33:57;4.50;;;2.28;;
39740;SDS011;25426;53.478;10.190;2022-07-23T03:36:29;4.45;;;2.40;;
39740;SDS011;25426;53.478;10.190;2022-07-23T03:39:00;3.10;;;2.47;;
39740;SDS011;25426;53.478;10.190;2022-07-23T03:41:31;4.80;;;2.80;;
39740;SDS011;25426;53.478;10.190;2022-07-23T03:44:02;3.15;;;2.50;;
39740;SDS011;25426;53.478;10.190;2022-07-23T03:46:34;8.23;;;2.33;;
39740;SDS011;25426;53.478;10.190;2022-07-23T03:49:04;8.70;;;2.90;;
39740;SDS011;25426;53.478;10.190;2022-07-23T03:51:35;6.88;;;2.53;;
39740;SDS011;25426;53.478;10.190;2022-07-23T03:54:06;5.22;;;2.50;;
39740;SDS011;25426;53.478;10.190;2022-07-23T03:56:37;3.78;;;2.22;;
39740;SDS011;25426;53.478;10.190;2022-07-23T03:59:08;5.63;;;2.80;;
39740;SDS011;25426;53.478;10.190;2022-07-23T04:01:39;5.10;;;2.67;;
39740;SDS011;25426;53.478;10.190;2022-07-23T04:04:10;5.40;;;2.83;;
39740;SDS011;25426;53.478;10.190;2022-07-23T04:06:44;8.75;;;3.60;;
39740;SDS011;25426;53.478;10.190;2022-07-23T04:09:15;8.23;;;3.33;;
39740;SDS011;25426;53.478;10.190;2022-07-23T04:11:46;5.28;;;3.00;;
39740;SDS011;25426;53.478;10.190;2022-07-23T04:14:16;5.75;;;2.85;;
39740;SDS011;25426;53.478;10.190;2022-07-23T04:16:50;4.72;;;2.95;;
39740;SDS011;25426;53.478;10.190;2022-07-23T04:19:22;9.35;;;3.05;;
39740;SDS011;25426;53.478;10.190;2022-07-23T04:22:04;5.20;;;3.15;;
39740;SDS011;25426;53.478;10.190;2022-07-23T04:24:37;7.32;;;3.20;;
39740;SDS011;25426;53.478;10.190;2022-07-23T04:27:08;9.27;;;3.03;;
39740;SDS011;25426;53.478;10.190;2022-07-23T04:29:39;5.05;;;2.90;;
39740;SDS011;25426;53.478;10.190;2022-07-23T04:32:10;3.72;;;2.90;;
39740;SDS011;25426;53.478;10.190;2022-07-23T04:34:41;5.55;;;3.13;;
39740;SDS011;25426;53.478;10.190;2022-07-23T04:37:12;3.47;;;2.42;;
39740;SDS011;25426;53.478;10.190;2022-07-23T04:39:43;4.45;;;3.00;;
39740;SDS011;25426;53.478;10.190;2022-07-23T04:42:16;6.25;;;2.80;;
39740;SDS011;25426;53.478;10.190;2022-07-23T04:44:46;6.10;;;3.50;;
39740;SDS011;25426;53.478;10.190;2022-07-23T04:47:17;5.68;;;2.90;;
39740;SDS011;25426;53.478;10.190;2022-07-23T04:49:49;4.60;;;3.20;;
39740;SDS011;25426;53.478;10.190;2022-07-23T04:52:20;7.25;;;2.95;;
39740;SDS011;25426;53.478;10.190;2022-07-23T04:54:51;5.63;;;3.30;;
39740;SDS011;25426;53.478;10.190;2022-07-23T04:57:22;6.57;;;3.05;;
39740;SDS011;25426;53.478;10.190;2022-07-23T04:59:53;6.50;;;3.40;;
39740;SDS011;25426;53.478;10.190;2022-07-23T05:02:24;5.97;;;3.55;;
39740;SDS011;25426;53.478;10.190;2022-07-23T05:04:55;6.82;;;4.00;;
39740;SDS011;25426;53.478;10.190;2022-07-23T05:07:26;7.03;;;3.67;;
39740;SDS011;25426;53.478;10.190;2022-07-23T05:09:57;5.18;;;4.03;;
39740;SDS011;25426;53.478;10.190;2022-07-23T05:12:27;5.93;;;4.18;;
39740;SDS011;25426;53.478;10.190;2022-07-23T05:14:58;8.80;;;4.50;;
39740;SDS011;25426;53.478;10.190;2022-07-23T05:17:30;4.88;;;4.35;;
39740;SDS011;25426;53.478;10.190;2022-07-23T05:20:01;8.27;;;4.97;;
39740;SDS011;25426;53.478;10.190;2022-07-23T05:22:33;8.77;;;4.50;;
39740;SDS011;25426;53.478;10.190;2022-07-23T05:25:04;7.55;;;4.82;;
39740;SDS011;25426;53.478;10.190;2022-07-23T05:27:35;10.43;;;4.78;;
39740;SDS011;25426;53.478;10.190;2022-07-23T05:30:07;8.20;;;4.32;;
39740;SDS011;25426;53.478;10.190;2022-07-23T05:32:41;9.68;;;5.70;;
39740;SDS011;25426;53.478;10.190;2022-07-23T05:35:17;7.68;;;4.93;;
39740;SDS011;25426;53.478;10.190;2022-07-23T05:38:03;9.05;;;4.32;;
39740;SDS011;25426;53.478;10.190;2022-07-23T05:40:34;6.82;;;4.63;;
39740;SDS011;25426;53.478;10.190;2022-07-23T05:43:05;9.55;;;4.30;;
39740;SDS011;25426;53.478;10.190;2022-07-23T05:45:36;7.07;;;4.00;;
39740;SDS011;25426;53.478;10.190;2022-07-23T05:48:08;5.65;;;4.05;;
39740;SDS011;25426;53.478;10.190;2022-07-23T05:50:46;4.93;;;4.03;;
39740;SDS011;25426;53.478;10.190;2022-07-23T05:53:28;8.05;;;3.80;;
39740;SDS011;25426;53.478;10.190;2022-07-23T05:56:28;6.50;;;3.67;;
39740;SDS011;25426;53.478;10.190;2022-07-23T05:58:59;5.40;;;4.03;;
39740;SDS011;25426;53.478;10.190;2022-07-23T06:01:30;10.23;;;3.95;;
39740;SDS011;25426;53.478;10.190;2022-07-23T06:04:09;6.05;;;4.03;;
39740;SDS011;25426;53.478;10.190;2022-07-23T06:06:43;5.32;;;3.83;;
39740;SDS011;25426;53.478;10.190;2022-07-23T06:09:15;5.45;;;3.78;;
39740;SDS011;25426;53.478;10.190;2022-07-23T06:11:46;7.70;;;3.83;;
39740;SDS011;25426;53.478;10.190;2022-07-23T06:14:17;6.78;;;3.40;;
39740;SDS011;25426;53.478;10.190;2022-07-23T06:16:58;6.28;;;3.90;;
39740;SDS011;25426;53.478;10.190;2022-07-23T06:19:30;5.70;;;3.67;;
39740;SDS011;25426;53.478;10.190;2022-07-23T06:22:01;3.33;;;2.95;;
39740;SDS011;25426;53.478;10.190;2022-07-23T06:24:33;6.47;;;3.08;;
39740;SDS011;25426;53.478;10.190;2022-07-23T06:27:04;5.80;;;3.20;;
39740;SDS011;25426;53.478;10.190;2022-07-23T06:29:35;5.05;;;3.03;;
39740;SDS011;25426;53.478;10.190;2022-07-23T06:32:06;3.88;;;2.85;;
39740;SDS011;25426;53.478;10.190;2022-07-23T06:34:37;4.78;;;2.33;;
39740;SDS011;25426;53.478;10.190;2022-07-23T06:37:08;4.85;;;2.58;;
39740;SDS011;25426;53.478;10.190;2022-07-23T06:39:39;4.90;;;2.50;;
39740;SDS011;25426;53.478;10.190;2022-07-23T06:42:10;3.10;;;1.90;;
39740;SDS011;25426;53.478;10.190;2022-07-23T06:44:46;6.40;;;2.30;;
39740;SDS011;25426;53.478;10.190;2022-07-23T06:47:20;5.07;;;2.13;;
39740;SDS011;25426;53.478;10.190;2022-07-23T06:49:51;3.95;;;1.63;;
39740;SDS011;25426;53.478;10.190;2022-07-23T06:52:22;4.30;;;2.13;;
39740;SDS011;25426;53.478;10.190;2022-07-23T06:54:52;4.72;;;2.17;;
39740;SDS011;25426;53.478;10.190;2022-07-23T06:57:23;5.10;;;2.08;;
39740;SDS011;25426;53.478;10.190;2022-07-23T06:59:55;4.20;;;2.30;;
39740;SDS011;25426;53.478;10.190;2022-07-23T07:02:26;5.65;;;1.98;;
39740;SDS011;25426;53.478;10.190;2022-07-23T07:04:58;7.88;;;1.95;;
39740;SDS011;25426;53.478;10.190;2022-07-23T07:07:29;3.47;;;1.70;;
39740;SDS011;25426;53.478;10.190;2022-07-23T07:10:01;4.20;;;2.17;;
39740;SDS011;25426;53.478;10.190;2022-07-23T07:12:33;8.75;;;1.88;;
39740;SDS011;25426;53.478;10.190;2022-07-23T07:15:04;4.53;;;1.50;;
39740;SDS011;25426;53.478;10.190;2022-07-23T07:17:35;4.90;;;1.40;;
39740;SDS011;25426;53.478;10.190;2022-07-23T07:20:06;2.90;;;1.70;;
39740;SDS011;25426;53.478;10.190;2022-07-23T07:22:38;2.35;;;1.50;;
39740;SDS011;25426;53.478;10.190;2022-07-23T07:25:09;2.00;;;1.10;;
39740;SDS011;25426;53.478;10.190;2022-07-23T07:27:39;1.80;;;1.15;;
39740;SDS011;25426;53.478;10.190;2022-07-23T07:30:11;3.53;;;1.30;;
39740;SDS011;25426;53.478;10.190;2022-07-23T07:32:42;2.83;;;1.05;;
39740;SDS011;25426;53.478;10.190;2022-07-23T07:35:13;1.73;;;1.20;;
39740;SDS011;25426;53.478;10.190;2022-07-23T07:37:44;2.40;;;1.40;;
39740;SDS011;25426;53.478;10.190;2022-07-23T07:40:15;1.83;;;1.33;;
39740;SDS011;25426;53.478;10.190;2022-07-23T07:42:49;3.03;;;1.10;;
39740;SDS011;25426;53.478;10.190;2022-07-23T07:45:22;2.47;;;1.15;;
39740;SDS011;25426;53.478;10.190;2022-07-23T07:47:54;1.40;;;0.77;;
39740;SDS011;25426;53.478;10.190;2022-07-23T07:50:25;2.28;;;1.17;;
39740;SDS011;25426;53.478;10.190;2022-07-23T07:52:56;2.15;;;0.93;;
39740;SDS011;25426;53.478;10.190;2022-07-23T07:55:27;1.00;;;0.77;;
39740;SDS011;25426;53.478;10.190;2022-07-23T07:57:58;0.95;;;0.55;;
39740;SDS011;25426;53.478;10.190;2022-07-23T08:00:29;2.03;;;0.80;;
39740;SDS011;25426;53.478;10.190;2022-07-23T08:03:00;2.50;;;0.82;;
39740;SDS011;25426;53.478;10.190;2022-07-23T08:05:31;1.85;;;0.95;;
39740;SDS011;25426;53.478;10.190;2022-07-23T08:08:02;1.70;;;0.90;;
39740;SDS011;25426;53.478;10.190;2022-07-23T08:10:33;3.78;;;1.10;;
39740;SDS011;25426;53.478;10.190;2022-07-23T08:13:04;2.60;;;0.73;;
39740;SDS011;25426;53.478;10.190;2022-07-23T08:15:34;2.67;;;1.20;;
39740;SDS011;25426;53.478;10.190;2022-07-23T08:18:06;1.38;;;0.90;;
39740;SDS011;25426;53.478;10.190;2022-07-23T08:20:37;1.55;;;1.00;;
39740;SDS011;25426;53.478;10.190;2022-07-23T08:23:09;3.92;;;1.10;;
39740;SDS011;25426;53.478;10.190;2022-07-23T08:25:41;2.10;;;0.80;;
39740;SDS011;25426;53.478;10.190;2022-07-23T08:28:12;1.73;;;1.08;;
39740;SDS011;25426;53.478;10.190;2022-07-23T08:30:45;1.38;;;0.65;;
39740;SDS011;25426;53.478;10.190;2022-07-23T08:33:16;2.22;;;1.23;;
39740;SDS011;25426;53.478;10.190;2022-07-23T08:35:49;1.23;;;0.85;;
39740;SDS011;25426;53.478;10.190;2022-07-23T08:38:22;3.03;;;0.88;;
39740;SDS011;25426;53.478;10.190;2022-07-23T08:40:55;2.30;;;0.80;;
39740;SDS011;25426;53.478;10.190;2022-07-23T08:43:31;0.82;;;0.80;;
39740;SDS011;25426;53.478;10.190;2022-07-23T08:46:03;1.80;;;0.70;;
39740;SDS011;25426;53.478;10.190;2022-07-23T08:48:35;2.88;;;1.15;;
39740;SDS011;25426;53.478;10.190;2022-07-23T08:51:06;1.60;;;0.77;;
39740;SDS011;25426;53.478;10.190;2022-07-23T08:53:37;3.75;;;0.80;;
39740;SDS011;25426;53.478;10.190;2022-07-23T08:56:09;1.33;;;0.60;;
39740;SDS011;25426;53.478;10.190;2022-07-23T08:58:40;1.50;;;0.50;;
39740;SDS011;25426;53.478;10.190;2022-07-23T09:01:11;1.35;;;0.43;;
39740;SDS011;25426;53.478;10.190;2022-07-23T09:03:42;1.05;;;0.52;;
39740;SDS011;25426;53.478;10.190;2022-07-23T09:06:15;1.77;;;0.40;;
39740;SDS011;25426;53.478;10.190;2022-07-23T09:08:45;0.95;;;0.57;;
39740;SDS011;25426;53.478;10.190;2022-07-23T09:11:17;1.63;;;0.70;;
39740;SDS011;25426;53.478;10.190;2022-07-23T09:13:49;1.00;;;0.70;;
39740;SDS011;25426;53.478;10.190;2022-07-23T09:16:26;2.80;;;0.70;;
39740;SDS011;25426;53.478;10.190;2022-07-23T09:19:00;1.75;;;0.63;;
39740;SDS011;25426;53.478;10.190;2022-07-23T09:21:37;0.60;;;0.60;;
39740;SDS011;25426;53.478;10.190;2022-07-23T09:24:09;0.73;;;0.63;;
39740;SDS011;25426;53.478;10.190;2022-07-23T09:26:42;1.60;;;0.45;;
39740;SDS011;25426;53.478;10.190;2022-07-23T09:29:20;1.88;;;0.60;;
39740;SDS011;25426;53.478;10.190;2022-07-23T09:31:59;1.67;;;0.60;;
39740;SDS011;25426;53.478;10.190;2022-07-23T09:34:33;1.85;;;0.60;;
39740;SDS011;25426;53.478;10.190;2022-07-23T09:37:12;3.33;;;0.93;;
39740;SDS011;25426;53.478;10.190;2022-07-23T09:39:48;1.83;;;0.50;;
39740;SDS011;25426;53.478;10.190;2022-07-23T09:42:22;0.65;;;0.38;;
39740;SDS011;25426;53.478;10.190;2022-07-23T09:44:56;2.20;;;0.40;;
39740;SDS011;25426;53.478;10.190;2022-07-23T09:47:29;1.00;;;0.50;;
39740;SDS011;25426;53.478;10.190;2022-07-23T09:50:05;1.92;;;0.50;;
39740;SDS011;25426;53.478;10.190;2022-07-23T09:52:46;2.17;;;0.50;;
39740;SDS011;25426;53.478;10.190;2022-07-23T09:55:19;1.08;;;0.50;;
39740;SDS011;25426;53.478;10.190;2022-07-23T09:57:49;2.92;;;0.50;;
39740;SDS011;25426;53.478;10.190;2022-07-23T10:00:23;1.02;;;0.32;;
39740;SDS011;25426;53.478;10.190;2022-07-23T10:02:54;0.77;;;0.50;;
39740;SDS011;25426;53.478;10.190;2022-07-23T10:05:31;0.47;;;0.40;;
39740;SDS011;25426;53.478;10.190;2022-07-23T10:08:23;2.20;;;0.55;;
39740;SDS011;25426;53.478;10.190;2022-07-23T10:11:13;1.13;;;0.55;;
39740;SDS011;25426;53.478;10.190;2022-07-23T10:13:56;1.35;;;0.43;;
39740;SDS011;25426;53.478;10.190;2022-07-23T10:16:55;0.38;;;0.35;;
39740;SDS011;25426;53.478;10.190;2022-07-23T10:19:26;2.45;;;0.35;;
39740;SDS011;25426;53.478;10.190;2022-07-23T10:21:58;1.45;;;0.75;;
39740;SDS011;25426;53.478;10.190;2022-07-23T10:27:47;0.50;;;0.40;;
39740;SDS011;25426;53.478;10.190;2022-07-23T10:30:59;2.40;;;0.77;;
39740;SDS011;25426;53.478;10.190;2022-07-23T10:37:28;1.42;;;0.65;;
39740;SDS011;25426;53.478;10.190;2022-07-23T10:40:19;3.03;;;0.90;;
39740;SDS011;25426;53.478;10.190;2022-07-23T10:42:53;1.40;;;0.65;;
39740;SDS011;25426;53.478;10.190;2022-07-23T10:45:32;1.95;;;0.65;;
39740;SDS011;25426;53.478;10.190;2022-07-23T10:48:15;1.95;;;0.60;;
39740;SDS011;25426;53.478;10.190;2022-07-23T10:53:59;1.45;;;0.57;;
39740;SDS011;25426;53.478;10.190;2022-07-23T10:59:25;3.08;;;0.50;;
39740;SDS011;25426;53.478;10.190;2022-07-23T11:02:19;1.42;;;0.40;;
39740;SDS011;25426;53.478;10.190;2022-07-23T11:04:53;1.35;;;0.52;;
39740;SDS011;25426;53.478;10.190;2022-07-23T11:07:25;0.88;;;0.40;;
39740;SDS011;25426;53.478;10.190;2022-07-23T11:09:55;0.63;;;0.32;;
39740;SDS011;25426;53.478;10.190;2022-07-23T11:15:13;1.23;;;0.50;;
39740;SDS011;25426;53.478;10.190;2022-07-23T11:20:22;0.47;;;0.40;;
39740;SDS011;25426;53.478;10.190;2022-07-23T11:22:57;0.88;;;0.40;;
39740;SDS011;25426;53.478;10.190;2022-07-23T11:25:31;3.10;;;0.20;;
39740;SDS011;25426;53.478;10.190;2022-07-23T11:28:12;0.40;;;0.20;;
39740;SDS011;25426;53.478;10.190;2022-07-23T11:30:50;2.05;;;0.50;;
39740;SDS011;25426;53.478;10.190;2022-07-23T11:33:22;1.75;;;0.40;;
39740;SDS011;25426;53.478;10.190;2022-07-23T11:36:00;1.70;;;0.43;;
39740;SDS011;25426;53.478;10.190;2022-07-23T11:38:33;1.17;;;0.40;;
39740;SDS011;25426;53.478;10.190;2022-07-23T11:41:04;1.58;;;0.50;;
39740;SDS011;25426;53.478;10.190;2022-07-23T11:43:36;1.92;;;0.52;;
39740;SDS011;25426;53.478;10.190;2022-07-23T11:46:09;0.60;;;0.40;;
39740;SDS011;25426;53.478;10.190;2022-07-23T11:48:40;3.35;;;0.68;;
39740;SDS011;25426;53.478;10.190;2022-07-23T11:51:11;1.13;;;0.30;;
39740;SDS011;25426;53.478;10.190;2022-07-23T11:54:04;1.33;;;0.47;;
39740;SDS011;25426;53.478;10.190;2022-07-23T11:56:36;0.50;;;0.40;;
39740;SDS011;25426;53.478;10.190;2022-07-23T11:59:07;1.27;;;0.50;;
39740;SDS011;25426;53.478;10.190;2022-07-23T12:01:43;1.48;;;0.55;;
39740;SDS011;25426;53.478;10.190;2022-07-23T12:04:44;0.43;;;0.40;;
39740;SDS011;25426;53.478;10.190;2022-07-23T12:12:35;0.82;;;0.30;;
39740;SDS011;25426;53.478;10.190;2022-07-23T12:15:16;0.47;;;0.30;;
39740;SDS011;25426;53.478;10.190;2022-07-23T12:17:49;2.47;;;0.63;;
39740;SDS011;25426;53.478;10.190;2022-07-23T12:20:23;0.60;;;0.25;;
39740;SDS011;25426;53.478;10.190;2022-07-23T12:22:56;1.25;;;0.30;;
39740;SDS011;25426;53.478;10.190;2022-07-23T12:25:31;2.00;;;0.40;;
39740;SDS011;25426;53.478;10.190;2022-07-23T12:28:06;1.20;;;0.50;;
39740;SDS011;25426;53.478;10.190;2022-07-23T12:30:44;1.27;;;0.65;;
39740;SDS011;25426;53.478;10.190;2022-07-23T12:33:33;1.02;;;0.68;;
39740;SDS011;25426;53.478;10.190;2022-07-23T12:36:10;4.30;;;1.00;;
39740;SDS011;25426;53.478;10.190;2022-07-23T12:38:43;2.72;;;1.02;;
39740;SDS011;25426;53.478;10.190;2022-07-23T12:41:18;4.82;;;1.02;;
39740;SDS011;25426;53.478;10.190;2022-07-23T12:43:49;2.35;;;0.95;;
39740;SDS011;25426;53.478;10.190;2022-07-23T12:46:20;6.03;;;0.93;;
39740;SDS011;25426;53.478;10.190;2022-07-23T12:48:52;3.88;;;1.20;;
39740;SDS011;25426;53.478;10.190;2022-07-23T12:51:25;4.18;;;1.10;;
39740;SDS011;25426;53.478;10.190;2022-07-23T12:54:05;3.55;;;0.90;;
39740;SDS011;25426;53.478;10.190;2022-07-23T12:56:40;3.90;;;1.33;;
39740;SDS011;25426;53.478;10.190;2022-07-23T12:59:15;1.75;;;0.88;;
39740;SDS011;25426;53.478;10.190;2022-07-23T13:01:56;1.67;;;1.20;;
39740;SDS011;25426;53.478;10.190;2022-07-23T13:04:28;1.52;;;1.00;;
39740;SDS011;25426;53.478;10.190;2022-07-23T13:07:01;1.77;;;1.02;;
39740;SDS011;25426;53.478;10.190;2022-07-23T13:09:33;3.78;;;1.33;;
39740;SDS011;25426;53.478;10.190;2022-07-23T13:12:04;1.80;;;1.27;;
39740;SDS011;25426;53.478;10.190;2022-07-23T13:14:35;3.05;;;1.10;;
39740;SDS011;25426;53.478;10.190;2022-07-23T13:17:06;2.22;;;1.00;;
39740;SDS011;25426;53.478;10.190;2022-07-23T13:19:36;1.02;;;0.70;;
39740;SDS011;25426;53.478;10.190;2022-07-23T13:22:07;3.05;;;1.25;;
39740;SDS011;25426;53.478;10.190;2022-07-23T13:24:38;3.60;;;1.25;;
39740;SDS011;25426;53.478;10.190;2022-07-23T13:27:09;2.97;;;1.05;;
39740;SDS011;25426;53.478;10.190;2022-07-23T13:29:40;2.83;;;1.10;;
39740;SDS011;25426;53.478;10.190;2022-07-23T13:32:12;2.67;;;1.00;;
39740;SDS011;25426;53.478;10.190;2022-07-23T13:34:43;2.17;;;0.90;;
39740;SDS011;25426;53.478;10.190;2022-07-23T13:37:14;5.25;;;1.27;;
39740;SDS011;25426;53.478;10.190;2022-07-23T13:39:44;1.63;;;0.77;;
39740;SDS011;25426;53.478;10.190;2022-07-23T13:42:15;2.20;;;0.50;;
39740;SDS011;25426;53.478;10.190;2022-07-23T13:44:46;3.35;;;1.00;;
39740;SDS011;25426;53.478;10.190;2022-07-23T13:47:17;1.73;;;0.70;;
39740;SDS011;25426;53.478;10.190;2022-07-23T13:49:48;1.88;;;0.88;;
39740;SDS011;25426;53.478;10.190;2022-07-23T13:52:19;2.83;;;1.00;;
39740;SDS011;25426;53.478;10.190;2022-07-23T13:54:49;2.47;;;1.05;;
39740;SDS011;25426;53.478;10.190;2022-07-23T13:57:20;2.15;;;0.70;;
39740;SDS011;25426;53.478;10.190;2022-07-23T13:59:51;2.50;;;0.80;;
39740;SDS011;25426;53.478;10.190;2022-07-23T14:02:22;1.92;;;0.65;;
39740;SDS011;25426;53.478;10.190;2022-07-23T14:04:53;4.45;;;0.90;;
39740;SDS011;25426;53.478;10.190;2022-07-23T14:07:24;1.48;;;0.80;;
39740;SDS011;25426;53.478;10.190;2022-07-23T14:09:55;3.65;;;1.17;;
39740;SDS011;25426;53.478;10.190;2022-07-23T14:12:26;5.00;;;0.85;;
39740;SDS011;25426;53.478;10.190;2022-07-23T14:14:57;4.15;;;0.77;;
39740;SDS011;25426;53.478;10.190;2022-07-23T14:17:27;2.88;;;1.15;;
39740;SDS011;25426;53.478;10.190;2022-07-23T14:19:58;2.60;;;1.10;;
39740;SDS011;25426;53.478;10.190;2022-07-23T14:22:29;2.83;;;0.77;;
39740;SDS011;25426;53.478;10.190;2022-07-23T14:25:00;2.63;;;0.60;;
39740;SDS011;25426;53.478;10.190;2022-07-23T14:27:31;3.58;;;1.08;;
39740;SDS011;25426;53.478;10.190;2022-07-23T14:30:02;3.20;;;0.82;;
39740;SDS011;25426;53.478;10.190;2022-07-23T14:32:37;0.90;;;0.60;;
39740;SDS011;25426;53.478;10.190;2022-07-23T14:35:08;1.08;;;0.57;;
39740;SDS011;25426;53.478;10.190;2022-07-23T14:37:39;0.88;;;0.40;;
39740;SDS011;25426;53.478;10.190;2022-07-23T14:40:10;2.05;;;0.73;;
39740;SDS011;25426;53.478;10.190;2022-07-23T14:42:41;4.70;;;0.80;;
39740;SDS011;25426;53.478;10.190;2022-07-23T14:45:12;1.52;;;0.75;;
39740;SDS011;25426;53.478;10.190;2022-07-23T14:47:43;1.73;;;0.80;;
39740;SDS011;25426;53.478;10.190;2022-07-23T14:50:14;2.88;;;0.95;;
39740;SDS011;25426;53.478;10.190;2022-07-23T14:52:45;1.10;;;0.52;;
39740;SDS011;25426;53.478;10.190;2022-07-23T14:55:15;1.23;;;0.50;;
39740;SDS011;25426;53.478;10.190;2022-07-23T14:57:48;2.40;;;0.88;;
39740;SDS011;25426;53.478;10.190;2022-07-23T15:00:19;3.83;;;1.25;;
39740;SDS011;25426;53.478;10.190;2022-07-23T15:02:50;1.33;;;0.60;;
39740;SDS011;25426;53.478;10.190;2022-07-23T15:05:22;1.65;;;0.90;;
39740;SDS011;25426;53.478;10.190;2022-07-23T15:07:53;2.00;;;0.90;;
39740;SDS011;25426;53.478;10.190;2022-07-23T15:10:24;2.55;;;0.80;;
39740;SDS011;25426;53.478;10.190;2022-07-23T15:12:54;1.85;;;0.80;;
39740;SDS011;25426;53.478;10.190;2022-07-23T15:15:25;1.67;;;0.70;;
39740;SDS011;25426;53.478;10.190;2022-07-23T15:17:56;2.10;;;1.15;;
39740;SDS011;25426;53.478;10.190;2022-07-23T15:20:27;2.60;;;1.23;;
39740;SDS011;25426;53.478;10.190;2022-07-23T15:22:58;0.95;;;0.75;;
39740;SDS011;25426;53.478;10.190;2022-07-23T15:25:29;1.25;;;1.00;;
39740;SDS011;25426;53.478;10.190;2022-07-23T15:28:00;2.92;;;1.05;;
39740;SDS011;25426;53.478;10.190;2022-07-23T15:30:31;2.92;;;0.93;;